Time;durP1;ratioP1;P1;durP2;ratioP2;P2;SDS_P1;SDS_P2;PMS_P1;PMS_P2;Temp;Humidity;BMP_temperature;BMP_pressure;BME280_temperature;BME280_humidity;BME280_pressure;Samples;Min_cycle;Max_cycle;Signal;HPM_P1;HPM_P2
2022/02/16 00:01:30;;;;;;;60.70;36.83;;;;;;;1.11;96.99;100463.66;1459743;89;22587;-83
2022/02/16 00:03:58;;;;;;;53.93;35.40;;;;;;;1.13;97.03;100465.25;1458485;88;22542;-82
2022/02/16 00:06:24;;;;;;;62.07;37.67;;;;;;;1.17;96.84;100466.38;1454302;89;21729;-82
2022/02/16 00:08:50;;;;;;;61.90;38.83;;;;;;;1.20;96.54;100463.14;1450508;89;21878;-82
2022/02/16 00:11:16;;;;;;;64.57;38.47;;;;;;;1.26;96.33;100463.25;1458941;88;21744;-82
2022/02/16 00:13:43;;;;;;;63.17;36.33;;;;;;;1.30;96.35;100457.78;1457853;88;21705;-82
2022/02/16 00:16:09;;;;;;;58.97;35.63;;;;;;;1.31;96.34;100458.16;1457172;88;21595;-83
2022/02/16 00:18:36;;;;;;;60.77;39.73;;;;;;;1.26;96.77;100452.35;1464296;89;21645;-83
2022/02/16 00:21:05;;;;;;;62.97;39.60;;;;;;;1.22;96.88;100456.55;1455749;89;22318;-83
2022/02/16 00:23:31;;;;;;;67.13;39.77;;;;;;;1.20;96.49;100457.92;1459140;88;22220;-83
2022/02/16 00:25:59;;;;;;;62.63;38.77;;;;;;;1.17;96.47;100451.58;1456495;88;21692;-82
2022/02/16 00:28:26;;;;;;;66.03;39.23;;;;;;;1.17;96.43;100452.88;1451763;89;21670;-82
2022/02/16 00:30:53;;;;;;;57.70;35.10;;;;;;;1.20;96.19;100447.48;1440033;90;21652;-83
2022/02/16 00:33:19;;;;;;;69.23;42.00;;;;;;;1.22;96.02;100440.43;1431282;90;21674;-83
2022/02/16 00:35:45;;;;;;;63.53;39.77;;;;;;;1.24;96.02;100438.59;1445822;89;21685;-85
2022/02/16 00:38:11;;;;;;;66.10;39.77;;;;;;;1.26;95.86;100443.23;1420161;89;21668;-85
2022/02/16 00:40:37;;;;;;;73.53;41.70;;;;;;;1.24;95.71;100441.19;1404822;92;22756;-83
2022/02/16 00:43:04;;;;;;;64.70;40.23;;;;;;;1.21;95.50;100442.67;1417082;91;21812;-83
2022/02/16 00:45:32;;;;;;;60.53;39.00;;;;;;;1.21;95.61;100442.67;1416824;92;21785;-83
2022/02/16 00:47:58;;;;;;;59.67;38.20;;;;;;;1.23;95.40;100439.49;1421477;91;21655;-84
2022/02/16 00:50:25;;;;;;;62.30;39.47;;;;;;;1.21;95.47;100437.45;1414436;91;22153;-85
2022/02/16 00:52:51;;;;;;;68.77;40.63;;;;;;;1.23;95.13;100436.89;1416209;91;21810;-85
2022/02/16 00:55:17;;;;;;;54.10;34.73;;;;;;;1.24;95.00;100428.62;1418125;92;22772;-84
2022/02/16 00:57:43;;;;;;;80.33;41.53;;;;;;;1.16;95.38;100422.53;1420584;91;21926;-84
2022/02/16 01:00:13;;;;;;;59.50;36.97;;;;;;;1.07;95.69;100423.06;1427318;91;21765;-85
2022/02/16 01:02:39;;;;;;;65.70;41.73;;;;;;;1.00;96.10;100430.84;1426156;91;21670;-85
2022/02/16 01:05:06;;;;;;;72.77;41.40;;;;;;;0.96;96.18;100428.04;1425665;91;21690;-85
2022/02/16 01:07:33;;;;;;;56.33;38.23;;;;;;;0.94;95.81;100424.67;1426573;91;21781;-85
2022/02/16 01:10:00;;;;;;;65.70;40.17;;;;;;;0.97;95.48;100425.80;1420971;91;22254;-85
2022/02/16 01:12:26;;;;;;;62.37;38.50;;;;;;;0.97;95.48;100429.24;1439442;90;21636;-85
2022/02/16 01:14:52;;;;;;;70.60;42.47;;;;;;;1.00;95.48;100426.93;1426951;90;21679;-85
2022/02/16 01:17:18;;;;;;;70.93;42.30;;;;;;;1.02;95.65;100427.69;1425805;90;21541;-84
2022/02/16 01:19:44;;;;;;;62.87;39.50;;;;;;;1.02;95.46;100430.30;1450093;90;21445;-84
2022/02/16 01:22:10;;;;;;;66.93;43.80;;;;;;;0.98;96.18;100420.95;1439544;89;21757;-84
2022/02/16 01:24:36;;;;;;;67.87;40.97;;;;;;;0.96;96.26;100415.02;1445827;90;21482;-84
2022/02/16 01:27:03;;;;;;;65.10;42.27;;;;;;;0.92;96.54;100408.27;1449994;90;21569;-84
2022/02/16 01:29:31;;;;;;;65.23;42.27;;;;;;;0.90;96.05;100406.61;1441890;89;21737;-84
2022/02/16 01:31:57;;;;;;;66.83;41.93;;;;;;;0.93;95.91;100408.67;1451450;90;21762;-84
2022/02/16 01:34:23;;;;;;;61.73;39.50;;;;;;;0.93;96.04;100404.77;1448429;90;22456;-83
2022/02/16 01:36:50;;;;;;;68.43;40.17;;;;;;;0.89;96.55;100403.63;1449909;89;21701;-84
2022/02/16 01:39:16;;;;;;;67.80;39.97;;;;;;;0.82;97.05;100398.38;1446247;90;21684;-83
2022/02/16 01:41:42;;;;;;;72.30;42.87;;;;;;;0.80;96.93;100393.70;1446533;89;23370;-83
2022/02/16 01:44:09;;;;;;;66.40;42.90;;;;;;;0.81;97.05;100399.31;1442858;90;22163;-82
2022/02/16 01:46:51;;;;;;;68.00;43.63;;;;;;;0.84;96.76;100400.44;1441485;90;22521;-82
2022/02/16 01:49:17;;;;;;;63.90;41.73;;;;;;;0.89;96.34;100395.81;1445716;89;21720;-82
2022/02/16 01:51:44;;;;;;;65.70;40.97;;;;;;;0.94;96.62;100385.58;1443285;90;22434;-83
2022/02/16 01:54:15;;;;;;;67.80;38.83;;;;;;;0.97;96.63;100384.10;1442723;89;22592;-82
2022/02/16 01:56:48;;;;;;;64.67;41.20;;;;;;;0.99;96.61;100377.88;1444958;89;21740;-82
2022/02/16 01:59:21;;;;;;;60.20;36.87;;;;;;;1.02;96.44;100369.05;1444384;89;21677;-82
2022/02/16 02:01:47;;;;;;;62.90;38.10;;;;;;;0.93;96.67;100366.51;1445477;89;21745;-85
2022/02/16 02:04:18;;;;;;;64.83;40.50;;;;;;;0.86;96.38;100371.23;1441034;90;21760;-85
2022/02/16 02:06:46;;;;;;;63.38;38.33;;;;;;;0.79;96.68;100366.45;1442188;89;21968;-86
2022/02/16 02:09:15;;;;;;;69.13;43.83;;;;;;;0.66;98.41;100371.48;1441676;90;21748;-84
2022/02/16 02:11:42;;;;;;;63.63;39.17;;;;;;;0.67;97.53;100374.49;1439210;90;21697;-85
2022/02/16 02:14:10;;;;;;;67.53;42.67;;;;;;;0.65;98.32;100373.27;1443149;90;21549;-85
2022/02/16 02:16:41;;;;;;;65.23;40.63;;;;;;;0.70;97.83;100380.83;1437352;89;21630;-85
2022/02/16 02:19:09;;;;;;;64.03;40.40;;;;;;;0.77;98.08;100368.30;1442878;90;22982;-85
2022/02/16 02:21:36;;;;;;;64.43;39.63;;;;;;;0.77;98.40;100359.17;1444838;90;21615;-84
2022/02/16 02:24:04;;;;;;;65.47;40.63;;;;;;;0.81;97.81;100346.37;1442466;90;21672;-86
2022/02/16 02:26:31;;;;;;;68.93;42.30;;;;;;;0.79;97.19;100341.70;1440212;89;22436;-86
2022/02/16 02:28:57;;;;;;;67.63;43.20;;;;;;;0.78;96.96;100339.56;1420524;90;21807;-86
2022/02/16 02:31:35;;;;;;;70.97;42.73;;;;;;;0.74;96.62;100344.55;1439159;90;22627;-86
2022/02/16 02:34:03;;;;;;;68.50;42.30;;;;;;;0.73;96.26;100354.61;1445467;89;22765;-86
2022/02/16 02:36:29;;;;;;;63.97;41.20;;;;;;;0.68;96.34;100360.06;1442663;90;22719;-86
2022/02/16 02:38:56;;;;;;;62.70;38.43;;;;;;;0.71;96.30;100356.92;1443458;90;21721;-86
2022/02/16 02:41:24;;;;;;;68.40;41.83;;;;;;;0.68;96.77;100365.27;1445339;90;21820;-86
2022/02/16 02:43:51;;;;;;;63.13;39.77;;;;;;;0.68;96.95;100367.05;1442141;90;21718;-86
2022/02/16 02:46:18;;;;;;;71.47;42.23;;;;;;;0.67;96.80;100365.38;1438169;89;21791;-86
2022/02/16 02:48:45;;;;;;;66.63;37.60;;;;;;;0.64;96.91;100355.97;1443744;90;21674;-86
2022/02/16 02:51:13;;;;;;;66.90;40.70;;;;;;;0.52;97.56;100355.80;1441245;90;21696;-86
2022/02/16 02:53:40;;;;;;;69.73;41.33;;;;;;;0.44;97.53;100362.28;1440591;89;21933;-86
2022/02/16 02:56:07;;;;;;;72.43;41.00;;;;;;;0.43;97.11;100352.80;1448418;90;21935;-86
2022/02/16 02:58:35;;;;;;;71.33;39.13;;;;;;;0.41;97.81;100355.94;1442647;89;22802;-85
2022/02/16 03:01:03;;;;;;;57.73;40.23;;;;;;;0.44;97.36;100357.08;1442767;90;21687;-86
2022/02/16 03:03:29;;;;;;;62.77;38.93;;;;;;;0.51;97.04;100356.73;1443175;90;21687;-86
2022/02/16 03:05:56;;;;;;;63.57;40.33;;;;;;;0.52;96.98;100358.39;1442698;90;21841;-86
2022/02/16 03:08:22;;;;;;;68.80;41.13;;;;;;;0.53;96.77;100353.12;1444929;89;21815;-82
2022/02/16 03:10:48;;;;;;;72.33;42.27;;;;;;;0.52;96.52;100359.70;1441864;90;22693;-82
2022/02/16 03:13:20;;;;;;;72.83;43.03;;;;;;;0.49;96.41;100368.55;1443273;89;21867;-82
2022/02/16 03:15:49;;;;;;;69.97;44.73;;;;;;;0.48;96.39;100368.16;1443410;90;21870;-83
2022/02/16 03:18:16;;;;;;;62.30;39.90;;;;;;;0.49;96.70;100372.45;1442336;90;23014;-83
2022/02/16 03:20:43;;;;;;;63.87;39.03;;;;;;;0.51;96.59;100377.09;1427050;90;21773;-82
2022/02/16 03:23:09;;;;;;;76.20;43.70;;;;;;;0.55;96.46;100371.28;1428372;90;21846;-82
2022/02/16 03:25:35;;;;;;;66.63;39.30;;;;;;;0.55;97.33;100369.51;1443081;90;21674;-85
2022/02/16 03:28:01;;;;;;;68.80;41.83;;;;;;;0.48;97.77;100362.94;1438356;90;21977;-85
2022/02/16 03:30:28;;;;;;;66.70;42.90;;;;;;;0.45;97.34;100359.20;1436141;90;21820;-85
2022/02/16 03:32:54;;;;;;;59.37;39.17;;;;;;;0.45;96.98;100347.02;1438405;90;21605;-82
2022/02/16 03:35:20;;;;;;;66.33;40.50;;;;;;;0.50;96.59;100347.25;1441188;90;22609;-82
2022/02/16 03:37:46;;;;;;;61.57;38.03;;;;;;;0.54;96.19;100346.97;1441834;89;21706;-82
2022/02/16 03:40:12;;;;;;;68.67;40.83;;;;;;;0.57;95.70;100331.64;1443332;90;21452;-82
2022/02/16 03:42:38;;;;;;;63.33;38.87;;;;;;;0.56;95.49;100326.91;1443874;90;22671;-82
2022/02/16 03:45:06;;;;;;;66.47;40.67;;;;;;;0.49;95.50;100346.84;1425954;90;21773;-82
2022/02/16 03:47:32;;;;;;;63.83;37.97;;;;;;;0.41;96.39;100339.02;1445094;90;21666;-84
2022/02/16 03:49:58;;;;;;;62.97;41.47;;;;;;;0.34;97.85;100342.87;1441470;90;21780;-84
2022/02/16 03:52:24;;;;;;;71.10;43.73;;;;;;;0.32;97.69;100346.51;1439054;90;22421;-83
2022/02/16 03:54:53;;;;;;;66.33;41.27;;;;;;;0.36;97.10;100343.63;1444842;90;21659;-82
2022/02/16 03:57:18;;;;;;;67.60;40.67;;;;;;;0.42;97.09;100332.04;1439894;90;21867;-82
2022/02/16 03:59:44;;;;;;;66.13;38.93;;;;;;;0.46;96.76;100328.33;1448592;89;21788;-83
2022/02/16 04:02:11;;;;;;;65.33;38.23;;;;;;;0.45;96.55;100330.09;1441325;90;21888;-83
2022/02/16 04:04:36;;;;;;;69.60;41.27;;;;;;;0.39;96.54;100330.44;1450465;90;22652;-83
2022/02/16 04:07:03;;;;;;;68.03;41.13;;;;;;;0.36;96.34;100328.02;1452433;90;21684;-83
2022/02/16 04:09:29;;;;;;;67.83;42.53;;;;;;;0.37;96.18;100316.66;1448972;90;21497;-83
2022/02/16 04:11:55;;;;;;;68.83;41.90;;;;;;;0.39;96.24;100320.50;1438248;90;21680;-82
2022/02/16 04:14:21;;;;;;;66.33;39.47;;;;;;;0.41;95.89;100318.19;1451845;89;22406;-84
2022/02/16 04:16:47;;;;;;;67.97;41.37;;;;;;;0.43;95.93;100315.48;1440889;90;21481;-84
2022/02/16 04:19:13;;;;;;;68.83;44.67;;;;;;;0.48;95.97;100316.53;1441053;89;21474;-84
2022/02/16 04:21:39;;;;;;;66.50;41.77;;;;;;;0.48;95.98;100310.03;1432966;90;21570;-84
2022/02/16 04:24:06;;;;;;;69.13;44.33;;;;;;;0.50;96.07;100292.56;1445997;90;22648;-84
2022/02/16 04:26:32;;;;;;;64.87;41.57;;;;;;;0.53;95.96;100289.78;1415873;90;21673;-85
2022/02/16 04:28:58;;;;;;;68.30;42.13;;;;;;;0.58;95.86;100286.46;1450827;90;21877;-86
2022/02/16 04:31:24;;;;;;;68.13;42.00;;;;;;;0.63;96.12;100283.11;1449767;90;21689;-85
2022/02/16 04:33:50;;;;;;;69.60;43.00;;;;;;;0.69;96.14;100278.84;1444043;90;22701;-85
2022/02/16 04:36:25;;;;;;;69.87;42.53;;;;;;;0.74;96.18;100278.13;1443340;89;21800;-85
2022/02/16 04:38:44;;;;;;;66.63;43.00;;;;;;;0.80;96.12;100282.97;1441965;90;22159;-85
2022/02/16 04:41:10;;;;;;;84.37;47.37;;;;;;;0.81;96.05;100283.84;1452880;90;21634;-85
2022/02/16 04:43:36;;;;;;;69.33;44.87;;;;;;;0.79;96.13;100278.70;1443102;90;21510;-85
2022/02/16 04:46:02;;;;;;;70.53;46.13;;;;;;;0.80;96.22;100285.58;1446361;90;21533;-85
2022/02/16 04:48:28;;;;;;;74.50;43.97;;;;;;;0.83;96.28;100285.40;1452273;89;21661;-85
2022/02/16 04:50:55;;;;;;;59.13;38.70;;;;;;;0.83;96.21;100282.80;1448988;89;21827;-85
2022/02/16 04:53:20;;;;;;;69.60;42.83;;;;;;;0.82;96.26;100281.59;1447495;90;22435;-85
2022/02/16 04:55:46;;;;;;;63.57;38.83;;;;;;;0.80;96.49;100282.97;1444803;90;21642;-86
2022/02/16 04:58:12;;;;;;;65.13;41.33;;;;;;;0.78;96.66;100284.85;1441772;90;21600;-85
2022/02/16 05:00:39;;;;;;;68.10;39.77;;;;;;;0.75;96.88;100285.03;1435703;89;21519;-85
2022/02/16 05:03:05;;;;;;;73.17;45.00;;;;;;;0.71;96.65;100282.20;1459343;89;21640;-84
2022/02/16 05:05:31;;;;;;;67.23;41.30;;;;;;;0.73;96.63;100276.45;1452388;89;21415;-85
2022/02/16 05:07:57;;;;;;;68.90;42.53;;;;;;;0.73;96.76;100275.16;1458555;89;22620;-85
2022/02/16 05:10:23;;;;;;;60.33;38.43;;;;;;;0.77;96.22;100274.03;1452483;89;21716;-85
2022/02/16 05:12:49;;;;;;;56.03;35.13;;;;;;;0.77;96.75;100274.03;1453398;89;21393;-85
2022/02/16 05:15:15;;;;;;;63.23;38.97;;;;;;;0.74;96.31;100284.63;1463958;89;21585;-85
2022/02/16 05:17:41;;;;;;;66.87;40.20;;;;;;;0.70;97.43;100282.31;1449675;89;21699;-85
2022/02/16 05:20:08;;;;;;;74.27;44.53;;;;;;;0.65;97.26;100274.75;1449903;89;22376;-85
2022/02/16 05:22:34;;;;;;;66.27;42.63;;;;;;;0.65;97.18;100281.27;1452644;89;21444;-85
2022/02/16 05:25:01;;;;;;;64.90;42.60;;;;;;;0.67;97.32;100288.06;1449179;89;21652;-85
2022/02/16 05:27:27;;;;;;;64.97;41.70;;;;;;;0.71;97.37;100288.72;1460512;89;23043;-82
2022/02/16 05:29:53;;;;;;;68.83;42.43;;;;;;;0.72;97.15;100287.81;1444312;89;21728;-83
2022/02/16 05:32:19;;;;;;;61.63;37.60;;;;;;;0.74;97.26;100292.45;1439811;89;22727;-82
2022/02/16 05:34:48;;;;;;;71.37;41.47;;;;;;;0.70;97.79;100296.17;1455094;89;21439;-83
2022/02/16 05:37:15;;;;;;;65.50;39.93;;;;;;;0.68;97.43;100305.36;1456778;89;21938;-84
2022/02/16 05:39:41;;;;;;;71.10;41.53;;;;;;;0.69;97.61;100308.80;1434307;89;22512;-84
2022/02/16 05:42:08;;;;;;;63.23;40.83;;;;;;;0.66;97.92;100315.48;1456885;89;21810;-85
2022/02/16 05:44:34;;;;;;;73.50;46.07;;;;;;;0.67;97.96;100315.41;1433313;89;21685;-85
2022/02/16 05:47:00;;;;;;;71.13;44.53;;;;;;;0.72;97.85;100313.86;1449692;89;21571;-85
2022/02/16 05:49:27;;;;;;;68.03;42.13;;;;;;;0.78;97.85;100309.60;1457485;89;21876;-85
2022/02/16 05:51:53;;;;;;;64.73;42.97;;;;;;;0.90;97.53;100306.75;1457474;89;21727;-84
2022/02/16 05:54:20;;;;;;;63.57;39.97;;;;;;;0.94;97.47;100303.02;1454032;89;22817;-85
2022/02/16 05:56:46;;;;;;;68.30;41.20;;;;;;;0.98;97.18;100308.89;1460271;89;21750;-86
2022/02/16 05:59:12;;;;;;;62.73;40.27;;;;;;;0.98;96.97;100298.47;1448611;89;22144;-85
2022/02/16 06:01:39;;;;;;;67.87;42.17;;;;;;;0.98;96.86;100303.67;1430995;90;22311;-85
2022/02/16 06:04:05;;;;;;;71.70;45.97;;;;;;;0.96;96.91;100306.39;1396521;94;21743;-85
2022/02/16 06:06:32;;;;;;;71.43;43.90;;;;;;;1.01;96.57;100307.44;1421770;92;22641;-85
2022/02/16 06:08:58;;;;;;;64.73;38.17;;;;;;;1.07;96.69;100307.08;1419959;92;21916;-86
2022/02/16 06:11:26;;;;;;;67.73;41.27;;;;;;;1.06;96.68;100311.89;1392094;92;21629;-85
2022/02/16 06:13:52;;;;;;;69.30;42.40;;;;;;;1.11;96.35;100317.22;1421434;92;22610;-84
2022/02/16 06:16:19;;;;;;;69.40;41.57;;;;;;;1.20;96.69;100314.53;1417692;92;21715;-83
2022/02/16 06:18:45;;;;;;;71.07;41.90;;;;;;;1.27;96.56;100309.81;1388585;94;21678;-81
2022/02/16 06:21:11;;;;;;;74.63;42.83;;;;;;;1.30;96.46;100302.64;1417526;92;21843;-81
2022/02/16 06:23:37;;;;;;;67.50;41.67;;;;;;;1.34;96.32;100311.11;1398194;92;21480;-81
2022/02/16 06:26:03;;;;;;;67.97;44.43;;;;;;;1.35;96.24;100317.55;1416985;92;21713;-81
2022/02/16 06:28:32;;;;;;;66.13;43.20;;;;;;;1.38;96.21;100301.33;1390371;92;21854;-81
2022/02/16 06:30:57;;;;;;;68.13;41.77;;;;;;;1.44;96.30;100293.12;1419316;92;22326;-81
2022/02/16 06:33:23;;;;;;;64.57;40.83;;;;;;;1.49;96.01;100289.78;1387434;92;21742;-81
2022/02/16 06:35:49;;;;;;;70.30;41.10;;;;;;;1.54;95.99;100289.88;1410375;92;21669;-81
2022/02/16 06:38:15;;;;;;;78.27;45.10;;;;;;;1.63;95.85;100283.27;1404184;91;21766;-81
2022/02/16 06:40:41;;;;;;;79.70;46.53;;;;;;;1.70;95.92;100276.75;1405587;92;22608;-81
2022/02/16 06:43:09;;;;;;;62.67;41.97;;;;;;;1.73;95.65;100283.08;1407201;93;22132;-81
2022/02/16 06:45:35;;;;;;;61.87;40.50;;;;;;;1.77;95.56;100291.08;1407926;93;22682;-81
2022/02/16 06:48:01;;;;;;;70.43;43.77;;;;;;;1.78;95.71;100277.13;1409009;91;21830;-81
2022/02/16 06:50:27;;;;;;;67.03;42.77;;;;;;;1.79;95.50;100278.78;1383120;93;22863;-81
2022/02/16 06:52:54;;;;;;;64.70;41.17;;;;;;;1.86;95.12;100267.48;1408546;92;21648;-81
2022/02/16 06:55:20;;;;;;;62.90;40.53;;;;;;;1.93;95.02;100270.10;1408151;93;21578;-82
2022/02/16 06:57:46;;;;;;;73.87;40.00;;;;;;;2.01;94.96;100270.91;1409167;93;22512;-82
2022/02/16 07:00:13;;;;;;;61.50;38.97;;;;;;;2.07;94.55;100271.81;1417919;91;21618;-82
2022/02/16 07:02:47;;;;;;;59.53;37.90;;;;;;;2.13;94.32;100275.81;1414705;91;21512;-82
2022/02/16 07:05:14;;;;;;;57.93;38.17;;;;;;;2.17;94.20;100274.23;1411301;92;21653;-82
2022/02/16 07:07:41;;;;;;;66.90;40.63;;;;;;;2.16;93.52;100276.48;1420712;92;21572;-81
2022/02/16 07:10:09;;;;;;;57.10;37.13;;;;;;;2.17;93.45;100285.98;1415585;92;21729;-83
2022/02/16 07:12:38;;;;;;;65.87;41.33;;;;;;;2.22;93.79;100289.14;1422806;92;21861;-83
2022/02/16 07:15:11;;;;;;;61.50;39.47;;;;;;;2.25;93.74;100294.17;1414640;90;21619;-83
2022/02/16 07:17:34;;;;;;;64.50;38.33;;;;;;;2.41;93.76;100294.48;1447896;88;21778;-83
2022/02/16 07:20:00;;;;;;;59.17;37.27;;;;;;;2.41;93.76;100294.48;1419990;91;21819;-83
2022/02/16 07:22:27;;;;;;;62.80;39.63;;;;;;;2.51;93.14;100294.27;1416921;91;21489;-83
2022/02/16 07:24:53;;;;;;;58.33;39.00;;;;;;;2.60;93.28;100300.67;1407729;91;21599;-83
2022/02/16 07:27:19;;;;;;;66.40;41.17;;;;;;;2.63;93.07;100298.69;1388013;93;21913;-83
2022/02/16 07:29:45;;;;;;;58.30;37.93;;;;;;;2.64;92.76;100299.05;1450016;89;21564;-84
2022/02/16 07:32:12;;;;;;;60.97;39.67;;;;;;;2.74;92.46;100307.63;1442440;89;21835;-83
2022/02/16 07:34:38;;;;;;;59.70;40.10;;;;;;;2.74;92.46;100280.19;1432588;89;22271;-82
2022/02/16 07:37:04;;;;;;;56.43;37.37;;;;;;;2.85;93.00;100298.58;1456050;89;22332;-82
2022/02/16 07:39:30;;;;;;;60.27;36.47;;;;;;;3.00;92.96;100304.12;1449460;89;21379;-82
2022/02/16 07:41:56;;;;;;;63.47;41.07;;;;;;;3.15;92.94;100293.93;1453125;89;21944;-83
2022/02/16 07:44:23;;;;;;;66.67;41.77;;;;;;;3.34;92.81;100284.22;1447219;89;21542;-83
2022/02/16 07:46:49;;;;;;;62.37;40.17;;;;;;;3.43;92.36;100280.22;1445928;89;22324;-84
2022/02/16 07:49:15;;;;;;;63.73;39.73;;;;;;;3.50;91.97;100280.22;1417409;91;22213;-82
2022/02/16 07:51:41;;;;;;;69.70;38.33;;;;;;;3.60;91.67;100294.36;1411115;92;22174;-82
2022/02/16 07:54:07;;;;;;;63.83;41.50;;;;;;;3.61;91.19;100281.63;1446534;89;21444;-81
2022/02/16 07:56:35;;;;;;;65.50;40.13;;;;;;;3.60;90.91;100282.58;1444457;89;21372;-81
2022/02/16 07:59:01;;;;;;;70.90;43.07;;;;;;;3.59;90.73;100296.59;1424476;91;23570;-81
2022/02/16 08:01:27;;;;;;;60.23;39.43;;;;;;;3.61;90.48;100288.64;1419295;91;22259;-81
2022/02/16 08:04:15;;;;;;;60.53;37.37;;;;;;;3.61;90.46;100288.64;1423600;91;22261;-81
2022/02/16 08:06:21;;;;;;;66.60;41.80;;;;;;;3.63;90.31;100292.00;1452067;89;22857;-81
2022/02/16 08:08:47;;;;;;;64.07;40.67;;;;;;;3.63;90.47;100285.94;1430194;91;22165;-81
2022/02/16 08:11:13;;;;;;;69.43;43.97;;;;;;;3.64;90.45;100287.60;1422627;91;21333;-81
2022/02/16 08:13:39;;;;;;;64.00;39.70;;;;;;;3.67;90.68;100288.22;1441568;89;21387;-81
2022/02/16 08:16:07;;;;;;;68.40;41.83;;;;;;;3.70;90.74;100283.24;1453583;88;22225;-81
2022/02/16 08:18:33;;;;;;;73.83;41.30;;;;;;;3.72;91.11;100283.50;1437452;90;21545;-81
2022/02/16 08:20:59;;;;;;;56.33;37.73;;;;;;;3.73;91.19;100282.55;1412435;91;22307;-80
2022/02/16 08:23:27;;;;;;;54.43;36.37;;;;;;;3.76;91.10;100292.80;1397770;91;22379;-81
2022/02/16 08:25:53;;;;;;;66.17;41.73;;;;;;;3.78;90.70;100292.72;1449784;89;23139;-80
2022/02/16 08:28:19;;;;;;;62.10;41.23;;;;;;;3.82;90.87;100292.84;1448629;88;22257;-80
2022/02/16 08:30:46;;;;;;;62.30;40.27;;;;;;;3.93;91.28;100285.08;1435957;91;23247;-80
2022/02/16 08:33:12;;;;;;;68.93;43.03;;;;;;;4.03;91.14;100292.66;1453451;89;22209;-81
2022/02/16 08:35:39;;;;;;;73.93;43.33;;;;;;;4.14;90.92;100298.42;1453908;89;23012;-81
2022/02/16 08:38:05;;;;;;;122.30;47.70;;;;;;;4.18;90.49;100297.75;1448116;89;21524;-80
2022/02/16 08:40:31;;;;;;;103.63;44.33;;;;;;;4.26;90.71;100295.42;1424980;91;22165;-81
2022/02/16 08:42:57;;;;;;;86.40;42.97;;;;;;;4.31;90.41;100295.91;1420159;91;21385;-81
2022/02/16 08:45:25;;;;;;;65.97;41.67;;;;;;;4.36;90.20;100293.80;1456678;89;22146;-81
2022/02/16 08:47:51;;;;;;;66.30;42.47;;;;;;;4.41;90.09;100295.62;1454596;88;21474;-81
2022/02/16 08:50:17;;;;;;;58.23;37.13;;;;;;;4.45;89.72;100275.26;1429462;89;22023;-81
2022/02/16 08:52:58;;;;;;;63.93;41.10;;;;;;;4.45;89.45;100270.84;1419159;90;21474;-80
2022/02/16 08:55:25;;;;;;;65.60;42.33;;;;;;;4.45;89.45;100270.84;1423970;91;21481;-80
2022/02/16 08:57:51;;;;;;;69.07;43.77;;;;;;;4.50;89.46;100272.66;1437647;91;21389;-80
2022/02/16 09:00:18;;;;;;;68.67;44.93;;;;;;;4.54;89.43;100273.27;1431165;91;22177;-80
2022/02/16 09:02:44;;;;;;;68.97;43.47;;;;;;;4.61;89.63;100271.88;1434976;91;21456;-79
2022/02/16 09:05:11;;;;;;;67.67;41.80;;;;;;;4.61;89.63;100271.88;1406889;93;21451;-80
2022/02/16 09:07:38;;;;;;;59.60;39.87;;;;;;;4.67;89.48;100267.98;1403345;93;21586;-80
2022/02/16 09:10:08;;;;;;;60.70;40.20;;;;;;;4.75;89.58;100239.41;1401247;92;21578;-80
2022/02/16 09:12:35;;;;;;;68.90;40.67;;;;;;;4.83;89.92;100251.92;1410629;92;21452;-80
2022/02/16 09:15:03;;;;;;;67.17;44.63;;;;;;;4.91;89.72;100251.70;1404393;92;21408;-83
2022/02/16 09:17:30;;;;;;;68.63;44.60;;;;;;;5.04;89.94;100261.30;1406151;92;22560;-82
2022/02/16 09:19:57;;;;;;;75.30;48.83;;;;;;;5.23;90.30;100258.92;1407640;92;21393;-82
2022/02/16 09:22:25;;;;;;;67.70;42.10;;;;;;;5.42;90.39;100252.62;1408676;92;21526;-82
2022/02/16 09:24:52;;;;;;;62.33;40.40;;;;;;;5.69;90.65;100251.41;1413056;93;21490;-83
2022/02/16 09:27:19;;;;;;;41.23;25.00;;;;;;;5.98;90.46;100250.94;1404599;92;21520;-83
2022/02/16 09:29:47;;;;;;;28.57;17.63;;;;;;;6.25;90.44;100259.24;1406955;92;21666;-81
2022/02/16 09:32:14;;;;;;;27.50;17.63;;;;;;;6.46;87.29;100265.03;1405061;92;21616;-81
2022/02/16 09:34:40;;;;;;;24.40;16.60;;;;;;;6.60;87.78;100256.84;1399798;92;22487;-81
2022/02/16 09:37:08;;;;;;;32.20;22.80;;;;;;;6.80;86.23;100257.01;1409176;91;21540;-82
2022/02/16 09:39:35;;;;;;;32.03;19.20;;;;;;;6.92;85.13;100248.08;1400139;92;21557;-82
2022/02/16 09:42:01;;;;;;;27.40;17.77;;;;;;;6.98;84.21;100242.30;1409438;92;21430;-82
2022/02/16 09:44:49;;;;;;;25.40;17.67;;;;;;;7.01;83.88;100247.30;1401603;93;22330;-82
2022/02/16 09:47:16;;;;;;;27.63;16.57;;;;;;;7.07;84.70;100245.95;1399784;92;21512;-81
2022/02/16 09:49:42;;;;;;;28.43;19.87;;;;;;;7.07;83.50;100244.16;1402766;92;21512;-82
2022/02/16 09:52:11;;;;;;;27.97;17.97;;;;;;;7.08;83.17;100239.26;1412562;92;22281;-82
2022/02/16 09:54:37;;;;;;;35.90;19.97;;;;;;;7.03;82.24;100238.81;1408345;92;22316;-81
2022/02/16 09:57:05;;;;;;;29.77;19.90;;;;;;;6.96;82.15;100233.69;1412506;92;21399;-81
2022/02/16 09:59:31;;;;;;;25.83;18.97;;;;;;;6.96;83.27;100235.02;1407110;92;21445;-81
2022/02/16 10:02:03;;;;;;;40.77;21.97;;;;;;;7.04;84.22;100238.32;1403533;92;22378;-80
2022/02/16 10:04:32;;;;;;;33.53;24.47;;;;;;;7.08;84.08;100234.00;1415069;92;21603;-81
2022/02/16 10:07:01;;;;;;;40.43;23.67;;;;;;;7.14;83.92;100226.89;1413862;92;21534;-81
2022/02/16 10:09:31;;;;;;;37.60;25.40;;;;;;;7.11;83.17;100229.79;1414558;92;21476;-81
2022/02/16 10:12:01;;;;;;;36.08;22.05;;;;;;;7.12;83.33;100222.23;1422217;91;21622;-81
2022/02/16 10:14:31;;;;;;;34.47;21.17;;;;;;;7.03;83.55;100220.39;1438587;91;21378;-81
2022/02/16 10:17:02;;;;;;;29.77;20.72;;;;;;;7.07;84.46;100223.09;1440202;91;21371;-81
2022/02/16 10:19:32;;;;;;;34.60;24.25;;;;;;;7.02;84.43;100227.94;1417250;91;21522;-80
2022/02/16 10:22:09;;;;;;;35.30;23.03;;;;;;;7.05;84.89;100231.62;1423992;91;22295;-80
2022/02/16 10:24:36;;;;;;;32.67;23.53;;;;;;;7.04;85.25;100231.25;1429545;90;21342;-81
2022/02/16 10:27:03;;;;;;;65.57;27.90;;;;;;;7.05;85.44;100227.68;1431032;90;21260;-81
2022/02/16 10:29:35;;;;;;;35.52;26.12;;;;;;;7.05;85.84;100230.31;1424104;90;21460;-80
2022/02/16 10:32:03;;;;;;;38.93;27.00;;;;;;;7.05;85.95;100221.10;1419417;91;21370;-81
2022/02/16 10:34:55;;;;;;;43.93;28.27;;;;;;;7.03;86.22;100212.98;1433028;91;21305;-81
2022/02/16 10:37:35;;;;;;;36.53;25.73;;;;;;;6.98;86.46;100215.50;1435002;91;22347;-81
2022/02/16 10:40:13;;;;;;;41.37;25.87;;;;;;;6.93;86.85;100212.45;1425557;91;21496;-80
2022/02/16 10:42:59;;;;;;;42.00;27.53;;;;;;;6.96;87.07;100204.30;1426973;90;21592;-81
2022/02/16 10:45:29;;;;;;;44.93;27.17;;;;;;;6.93;87.01;100202.38;1445187;90;21554;-81
2022/02/16 10:48:02;;;;;;;44.50;28.60;;;;;;;6.93;87.20;100198.44;1428885;90;22369;-80
2022/02/16 10:50:47;;;;;;;43.00;28.20;;;;;;;6.95;87.39;100196.52;1434300;91;21356;-81
2022/02/16 10:53:15;;;;;;;46.63;28.93;;;;;;;6.95;87.16;100192.08;1434429;91;22383;-82
2022/02/16 10:55:50;;;;;;;40.53;26.97;;;;;;;6.91;86.50;100186.74;1430619;91;21379;-81
2022/02/16 10:58:21;;;;;;;57.87;33.77;;;;;;;6.88;86.49;100191.44;1422111;91;21349;-81
2022/02/16 11:00:51;;;;;;;42.83;26.55;;;;;;;6.87;86.78;100192.38;1423007;91;21481;-81
2022/02/16 11:03:33;;;;;;;28.38;18.85;;;;;;;6.83;87.06;100187.04;1431826;91;22172;-81
2022/02/16 11:06:10;;;;;;;49.20;29.70;;;;;;;6.79;86.96;100179.89;1419936;91;21564;-82
2022/02/16 11:08:37;;;;;;;44.00;28.13;;;;;;;6.74;87.14;100182.07;1426449;91;22295;-81
2022/02/16 11:11:05;;;;;;;43.77;27.00;;;;;;;6.73;87.57;100183.88;1425679;90;21460;-81
2022/02/16 11:13:33;;;;;;;40.60;24.07;;;;;;;6.73;87.63;100185.19;1430018;90;21400;-81
2022/02/16 11:16:01;;;;;;;49.23;28.63;;;;;;;6.73;87.84;100173.35;1433708;90;21379;-81
2022/02/16 11:18:31;;;;;;;47.67;28.80;;;;;;;6.70;87.87;100169.67;1430186;90;21416;-82